createdAt,value
2022-08-07T00:00:15.080Z,99981.22
2022-08-07T00:01:44.015Z,99967.09
2022-08-07T00:02:44.227Z,99978.09
2022-08-07T00:03:47.302Z,99973.91
2022-08-07T00:04:49.204Z,99977.41
2022-08-07T00:05:50.737Z,99977.28
2022-08-07T00:06:52.479Z,99980.75
2022-08-07T00:07:59.730Z,99977.75
2022-08-07T00:09:16.987Z,99977.38
2022-08-07T00:10:27.050Z,99978.22
2022-08-07T00:11:33.233Z,99977.03
2022-08-07T00:12:34.927Z,99975.53
2022-08-07T00:13:45.433Z,99979.03
2022-08-07T00:14:48.106Z,99975.84
2022-08-07T00:15:51.862Z,99976.19
2022-08-07T00:16:53.389Z,99984.31
2022-08-07T00:17:54.869Z,99978.31
2022-08-07T00:18:56.363Z,99975.50
2022-08-07T00:20:01.058Z,99980.97
2022-08-07T00:21:07.909Z,99971.16
2022-08-07T00:22:35.077Z,99977.00
2022-08-07T00:23:40.147Z,99971.53
2022-08-07T00:24:41.876Z,99981.19
2022-08-07T00:25:59.217Z,99978.84
2022-08-07T00:27:06.511Z,99978.78
2022-08-07T00:28:10.639Z,99986.25
2022-08-07T00:29:12.264Z,99980.59
2022-08-07T00:30:26.746Z,99983.41
2022-08-07T00:31:38.037Z,99983.91
2022-08-07T00:32:43.061Z,99975.63
2022-08-07T00:33:47.701Z,99985.44
2022-08-07T00:34:49.432Z,99984.06
2022-08-07T00:35:53.150Z,99990.22
2022-08-07T00:36:54.891Z,99986.72
2022-08-07T00:37:56.590Z,99987.25
2022-08-07T00:38:58.392Z,99984.91
2022-08-07T00:40:00.605Z,99987.72
2022-08-07T00:41:03.862Z,99984.41
2022-08-07T00:42:11.375Z,99991.03
2022-08-07T00:44:00.754Z,99984.34
2022-08-07T00:44:38.277Z,99995.47
2022-08-07T00:45:46.629Z,99988.97
2022-08-07T00:46:48.228Z,99992.63
2022-08-07T00:48:08.829Z,99993.78
2022-08-07T00:49:11.649Z,99989.78
2022-08-07T00:50:46.642Z,99989.25
2022-08-07T00:51:58.525Z,99990.25
2022-08-07T00:53:00.493Z,99996.88
2022-08-07T00:54:01.985Z,99989.22
2022-08-07T00:55:04.600Z,99991.31
2022-08-07T00:56:14.023Z,99993.13
2022-08-07T00:57:17.181Z,99988.66
2022-08-07T00:58:20.525Z,99992.00
2022-08-07T00:59:35.253Z,99989.31
2022-08-07T01:00:37.535Z,99996.25
2022-08-07T01:01:57.875Z,99982.13
2022-08-07T01:02:59.776Z,99978.81
2022-08-07T01:04:07.440Z,99984.13
2022-08-07T01:05:19.294Z,99979.94
2022-08-07T01:06:21.877Z,99981.47
2022-08-07T01:07:25.021Z,99987.59
2022-08-07T01:08:29.483Z,99985.13
2022-08-07T01:10:03.891Z,99992.44
2022-08-07T01:10:55.176Z,99990.94
2022-08-07T01:12:11.076Z,99990.25
2022-08-07T01:13:20.624Z,99995.56
2022-08-07T01:14:28.440Z,99992.41
2022-08-07T01:16:01.121Z,99991.72
2022-08-07T01:16:56.101Z,99989.91
2022-08-07T01:17:57.712Z,99996.03
2022-08-07T01:18:59.293Z,99991.34
2022-08-07T01:20:16.653Z,99990.47
2022-08-07T01:21:24.374Z,99986.59
2022-08-07T01:22:31.203Z,99985.44
2022-08-07T01:23:38.002Z,99981.97
2022-08-07T01:24:43.100Z,99982.28
2022-08-07T01:25:55.146Z,99982.41
2022-08-07T01:26:59.751Z,99977.41
2022-08-07T01:28:01.654Z,99978.41
2022-08-07T01:29:04.619Z,99977.88
2022-08-07T01:30:07.980Z,99979.84
2022-08-07T01:31:15.409Z,99979.47
2022-08-07T01:32:22.276Z,99980.69
2022-08-07T01:33:25.221Z,99978.34
2022-08-07T01:34:47.327Z,99981.31
2022-08-07T01:35:53.220Z,99982.13
2022-08-07T01:37:00.405Z,99980.63
2022-08-07T01:38:03.991Z,99982.56
2022-08-07T01:39:09.868Z,99977.97
2022-08-07T01:40:15.574Z,99987.16
2022-08-07T01:41:27.307Z,99984.78
2022-08-07T01:42:38.705Z,99977.97
2022-08-07T01:43:44.655Z,99981.63
2022-08-07T01:44:47.972Z,99978.03
2022-08-07T01:45:50.638Z,99983.34
2022-08-07T01:46:57.317Z,99984.56
2022-08-07T01:48:18.500Z,99979.09
2022-08-07T01:49:23.906Z,99980.41
2022-08-07T01:50:29.074Z,99979.00
2022-08-07T01:52:04.037Z,99977.34
2022-08-07T01:52:57.011Z,99978.03
2022-08-07T01:54:11.630Z,99976.66
2022-08-07T01:55:22.369Z,99977.22
2022-08-07T01:56:51.459Z,99982.13
2022-08-07T01:58:06.819Z,99982.34
2022-08-07T01:59:45.994Z,99978.19
2022-08-07T02:00:57.950Z,99980.69
2022-08-07T02:02:32.598Z,99978.34
2022-08-07T02:03:50.401Z,99975.00
2022-08-07T02:05:02.446Z,99977.50
2022-08-07T02:06:31.986Z,99977.66
2022-08-07T02:07:50.237Z,99975.13
2022-08-07T02:08:58.737Z,99977.97
2022-08-07T02:10:04.049Z,99980.44
2022-08-07T02:11:10.996Z,99976.81
2022-08-07T02:12:37.784Z,99980.38
2022-08-07T02:13:58.067Z,99980.53
2022-08-07T02:15:06.793Z,99970.44
2022-08-07T02:16:19.950Z,99975.59
2022-08-07T02:17:37.457Z,99976.88
2022-08-07T02:18:47.245Z,99976.34
2022-08-07T02:20:07.732Z,99974.00
2022-08-07T02:21:16.188Z,99969.84
2022-08-07T02:22:19.504Z,99971.66
2022-08-07T02:23:23.928Z,99970.16
2022-08-07T02:24:29.678Z,99968.38
2022-08-07T02:26:30.478Z,99970.06
2022-08-07T02:27:01.479Z,99964.00
2022-08-07T02:28:06.990Z,99964.84
2022-08-07T02:29:13.904Z,99969.59
2022-08-07T02:30:17.376Z,99966.28
2022-08-07T02:31:28.718Z,99962.09
2022-08-07T02:32:33.661Z,99976.03
2022-08-07T02:34:02.861Z,99969.06
2022-08-07T02:35:01.114Z,99976.03
2022-08-07T02:36:29.499Z,99968.25
2022-08-07T02:37:28.280Z,99966.94
2022-08-07T02:38:39.306Z,99970.06
2022-08-07T02:40:02.167Z,99973.53
2022-08-07T02:41:14.732Z,99969.75
2022-08-07T02:42:24.176Z,99974.59
2022-08-07T02:43:27.874Z,99978.78
2022-08-07T02:44:34.614Z,99973.09
2022-08-07T02:45:58.082Z,99972.13
2022-08-07T02:47:03.405Z,99970.16
2022-08-07T02:48:10.214Z,99970.84
2022-08-07T02:49:12.629Z,99972.88
2022-08-07T02:50:34.250Z,99969.00
2022-08-07T02:51:42.717Z,99974.22
2022-08-07T02:53:00.846Z,99965.44
2022-08-07T02:54:09.884Z,99973.63
2022-08-07T02:55:28.236Z,99980.47
2022-08-07T02:56:48.582Z,99980.31
2022-08-07T02:57:53.580Z,99980.75
2022-08-07T02:59:00.260Z,99980.22
2022-08-07T03:00:11.221Z,99981.88
2022-08-07T03:01:18.593Z,99979.91
2022-08-07T03:02:21.595Z,99972.81
2022-08-07T03:03:26.617Z,99978.44
2022-08-07T03:04:46.642Z,99972.41
2022-08-07T03:05:54.114Z,99971.97
2022-08-07T03:06:56.537Z,99972.66
2022-08-07T03:08:07.608Z,99971.22
2022-08-07T03:09:14.448Z,99975.09
2022-08-07T03:10:16.699Z,99976.22
2022-08-07T03:11:20.138Z,99975.97
2022-08-07T03:12:30.729Z,99977.31
2022-08-07T03:13:39.168Z,99973.81
2022-08-07T03:14:52.475Z,99983.84
2022-08-07T03:15:58.652Z,99981.66
2022-08-07T03:17:04.531Z,99983.19
2022-08-07T03:18:06.726Z,99981.03
2022-08-07T03:19:09.346Z,99975.50
2022-08-07T03:20:11.497Z,99979.56
2022-08-07T03:21:18.907Z,99980.31
2022-08-07T03:22:29.676Z,99974.59
2022-08-07T03:24:17.821Z,99979.66
2022-08-07T03:24:55.853Z,99986.34
2022-08-07T03:26:00.300Z,99988.56
2022-08-07T03:27:08.988Z,99985.34
2022-08-07T03:28:38.434Z,99984.06
2022-08-07T03:29:51.428Z,99980.28
2022-08-07T03:30:59.894Z,99982.94
2022-08-07T03:32:06.461Z,99978.63
2022-08-07T03:33:10.245Z,99979.00
2022-08-07T03:34:18.602Z,99975.13
2022-08-07T03:35:27.490Z,99975.13
2022-08-07T03:36:46.198Z,99972.75
2022-08-07T03:37:56.523Z,99975.28
2022-08-07T03:39:05.573Z,99978.63
2022-08-07T03:40:14.887Z,99981.66
2022-08-07T03:41:19.167Z,99987.50
2022-08-07T03:42:41.089Z,99976.34
2022-08-07T03:43:56.882Z,99980.69
2022-08-07T03:45:04.515Z,99983.88
2022-08-07T03:46:10.491Z,99987.94
2022-08-07T03:47:23.070Z,99986.66
2022-08-07T03:48:26.309Z,99984.00
2022-08-07T03:49:33.034Z,99981.88
2022-08-07T03:50:35.147Z,99986.06
2022-08-07T03:51:47.409Z,99985.66
2022-08-07T03:52:58.920Z,99985.66
2022-08-07T03:54:33.704Z,99994.31
2022-08-07T03:55:23.229Z,99985.22
2022-08-07T03:56:33.372Z,99989.53
2022-08-07T03:58:32.940Z,99983.81
2022-08-07T03:59:12.997Z,99992.69
2022-08-07T04:00:21.061Z,99996.47
2022-08-07T04:01:32.495Z,99997.31
2022-08-07T04:02:41.090Z,99992.69
2022-08-07T04:03:53.350Z,99997.84
2022-08-07T04:04:56.895Z,99993.09
2022-08-07T04:05:59.999Z,99997.69
2022-08-07T04:07:02.870Z,99997.00
2022-08-07T04:08:21.032Z,99995.75
2022-08-07T04:09:23.988Z,99997.25
2022-08-07T04:10:31.881Z,99999.63
2022-08-07T04:12:24.947Z,100000.84
2022-08-07T04:12:56.869Z,100006.84
2022-08-07T04:14:33.058Z,100004.03
2022-08-07T04:15:24.027Z,100007.38
2022-08-07T04:16:31.240Z,100004.44
2022-08-07T04:18:31.434Z,100005.44
2022-08-07T04:19:01.381Z,99992.97
2022-08-07T04:20:10.941Z,99991.59
2022-08-07T04:21:12.614Z,99994.91
2022-08-07T04:22:18.930Z,100004.03
2022-08-07T04:23:21.468Z,99995.91
2022-08-07T04:24:30.369Z,100002.38
2022-08-07T04:25:39.309Z,99999.09
2022-08-07T04:26:43.892Z,100001.66
2022-08-07T04:27:59.382Z,100002.53
2022-08-07T04:29:04.171Z,100004.78
2022-08-07T04:30:13.386Z,100007.00
2022-08-07T04:31:38.776Z,99999.72
2022-08-07T04:32:58.392Z,99997.34
2022-08-07T04:34:02.289Z,99995.75
2022-08-07T04:35:07.096Z,99998.41
2022-08-07T04:36:09.268Z,99991.44
2022-08-07T04:37:20.216Z,99991.97
2022-08-07T04:38:22.947Z,99997.22
2022-08-07T04:39:26.271Z,100004.34
2022-08-07T04:40:29.971Z,100002.13
2022-08-07T04:41:36.854Z,100005.00
2022-08-07T04:42:38.590Z,100002.91
2022-08-07T04:44:13.036Z,100002.63
2022-08-07T04:45:12.810Z,100001.16
2022-08-07T04:46:29.534Z,100005.50
2022-08-07T04:48:02.041Z,100009.28
2022-08-07T04:49:27.920Z,100003.97
2022-08-07T04:50:54.032Z,100003.66
2022-08-07T04:52:18.369Z,100010.19
2022-08-07T04:54:01.320Z,100018.84
2022-08-07T04:58:23.768Z,100010.34
2022-08-07T04:58:24.301Z,100015.66
2022-08-07T04:58:47.545Z,100012.84
2022-08-07T05:00:19.003Z,100020.38
2022-08-07T05:02:07.619Z,100015.75
2022-08-07T05:03:59.552Z,100017.94
2022-08-07T05:05:00.037Z,100014.84
2022-08-07T05:06:22.268Z,100023.03
2022-08-07T05:07:48.650Z,100018.41
2022-08-07T05:09:10.676Z,100017.25
2022-08-07T05:10:33.249Z,100021.19
2022-08-07T05:11:58.951Z,100021.91
2022-08-07T05:14:56.260Z,100019.91
2022-08-07T05:14:59.233Z,100018.31
2022-08-07T05:16:10.356Z,100026.34
2022-08-07T05:17:50.186Z,100028.88
2022-08-07T05:18:53.078Z,100023.91
2022-08-07T05:19:56.986Z,100026.13
2022-08-07T05:21:02.496Z,100027.78
2022-08-07T05:22:09.453Z,100025.47
2022-08-07T05:23:19.140Z,100029.00
2022-08-07T05:24:30.397Z,100034.16
2022-08-07T05:26:09.897Z,100037.88
2022-08-07T05:26:58.799Z,100033.44
2022-08-07T05:28:20.351Z,100037.63
2022-08-07T05:29:26.052Z,100040.28
2022-08-07T05:30:42.556Z,100033.91
2022-08-07T05:31:52.608Z,100033.66
2022-08-07T05:33:00.395Z,100033.44
2022-08-07T05:34:11.402Z,100033.72
2022-08-07T05:35:17.584Z,100036.94
2022-08-07T05:36:22.893Z,100037.00
2022-08-07T05:37:40.943Z,100027.38
2022-08-07T05:38:59.731Z,100032.88
2022-08-07T05:40:13.645Z,100031.19
2022-08-07T05:41:21.903Z,100035.19
2022-08-07T05:42:33.808Z,100038.03
2022-08-07T05:43:43.500Z,100034.34
2022-08-07T05:45:14.028Z,100037.50
2022-08-07T05:46:23.063Z,100039.50
2022-08-07T05:47:37.915Z,100039.59
2022-08-07T05:48:58.382Z,100035.28
2022-08-07T05:50:03.415Z,100036.47
2022-08-07T05:51:06.957Z,100040.78
2022-08-07T05:52:11.974Z,100040.13
2022-08-07T05:54:09.581Z,100031.06
2022-08-07T05:54:44.481Z,100036.53
2022-08-07T05:56:03.272Z,100031.19
2022-08-07T05:57:09.571Z,100040.56
2022-08-07T05:58:12.184Z,100036.47
2022-08-07T05:59:17.277Z,100040.34
2022-08-07T06:00:21.617Z,100042.84
2022-08-07T06:01:35.692Z,100046.22
2022-08-07T06:02:40.164Z,100041.22
2022-08-07T06:03:53.936Z,100041.22
2022-08-07T06:05:04.811Z,100041.06
2022-08-07T06:06:09.449Z,100043.56
2022-08-07T06:07:11.667Z,100044.19
2022-08-07T06:08:30.732Z,100045.22
2022-08-07T06:10:04.273Z,100045.69
2022-08-07T06:10:55.468Z,100045.34
2022-08-07T06:11:58.970Z,100050.50
2022-08-07T06:13:02.156Z,100044.19
2022-08-07T06:14:12.888Z,100041.53
2022-08-07T06:15:39.200Z,100039.03
2022-08-07T06:16:50.347Z,100043.53
2022-08-07T06:17:58.282Z,100039.06
2022-08-07T06:19:01.955Z,100041.06
2022-08-07T06:20:04.697Z,100043.75
2022-08-07T06:22:15.859Z,100034.19
2022-08-07T06:22:38.853Z,100030.38
2022-08-07T06:24:37.692Z,100038.88
2022-08-07T06:25:28.818Z,100031.56
2022-08-07T06:26:39.815Z,100034.91
2022-08-07T06:28:00.115Z,100040.38
2022-08-07T06:29:06.535Z,100038.88
2022-08-07T06:30:08.927Z,100036.88
2022-08-07T06:31:47.065Z,100038.06
2022-08-07T06:32:52.474Z,100041.38
2022-08-07T06:33:54.148Z,100036.06
2022-08-07T06:34:56.269Z,100035.53
2022-08-07T06:36:06.900Z,100040.38
2022-08-07T06:37:23.100Z,100040.13
2022-08-07T06:38:24.572Z,100045.44
2022-08-07T06:40:17.476Z,100042.25
2022-08-07T06:40:54.562Z,100037.44
2022-08-07T06:42:10.231Z,100043.56
2022-08-07T06:43:39.541Z,100041.53
2022-08-07T06:44:51.056Z,100048.50
2022-08-07T06:45:57.367Z,100037.78
2022-08-07T06:47:10.632Z,100044.13
2022-08-07T06:48:24.815Z,100050.97
2022-08-07T06:49:28.069Z,100052.25
2022-08-07T06:50:31.777Z,100053.59
2022-08-07T06:51:49.428Z,100052.53
2022-08-07T06:52:57.053Z,100045.13
2022-08-07T06:55:28.822Z,100057.00
2022-08-07T06:55:47.915Z,100054.22
2022-08-07T06:56:53.715Z,100058.25
2022-08-07T06:58:06.728Z,100056.00
2022-08-07T07:00:14.048Z,100053.06
2022-08-07T07:00:44.390Z,100059.06
2022-08-07T07:01:50.588Z,100062.69
2022-08-07T07:02:54.189Z,100054.38
2022-08-07T07:04:23.692Z,100060.81
2022-08-07T07:06:03.103Z,100060.53
2022-08-07T07:07:00.814Z,100056.75
2022-08-07T07:08:06.572Z,100062.09
2022-08-07T07:09:31.176Z,100059.31
2022-08-07T07:10:34.493Z,100054.78
2022-08-07T07:12:07.790Z,100052.69
2022-08-07T07:13:11.586Z,100051.78
2022-08-07T07:14:16.222Z,100059.78
2022-08-07T07:15:32.730Z,100057.50
2022-08-07T07:16:50.815Z,100053.06
2022-08-07T07:18:00.171Z,100049.09
2022-08-07T07:19:33.805Z,100060.25
2022-08-07T07:20:33.446Z,100053.81
2022-08-07T07:22:11.600Z,100050.03
2022-08-07T07:24:09.725Z,100050.50
2022-08-07T07:24:25.518Z,100047.38
2022-08-07T07:26:35.623Z,100043.94
2022-08-07T07:26:52.456Z,100045.78
2022-08-07T07:28:41.948Z,100045.44
2022-08-07T07:29:56.107Z,100031.94
2022-08-07T07:31:01.947Z,100032.69
2022-08-07T07:32:08.458Z,100034.91
2022-08-07T07:33:13.675Z,100031.50
2022-08-07T07:34:21.981Z,100027.03
2022-08-07T07:35:51.847Z,100031.88
2022-08-07T07:37:14.489Z,100036.75
2022-08-07T07:38:24.026Z,100037.94
2022-08-07T07:39:35.879Z,100030.25
2022-08-07T07:40:50.748Z,100027.25
2022-08-07T07:42:08.702Z,100021.97
2022-08-07T07:43:18.706Z,100023.50
2022-08-07T07:44:31.468Z,100031.00
2022-08-07T07:46:37.490Z,100030.31
2022-08-07T07:47:01.246Z,100024.38
2022-08-07T07:48:34.878Z,100037.13
2022-08-07T07:50:31.285Z,100038.88
2022-08-07T07:51:02.146Z,100036.50
2022-08-07T07:52:05.743Z,100033.44
2022-08-07T07:53:20.757Z,100038.41
2022-08-07T07:54:27.428Z,100028.75
2022-08-07T07:55:37.174Z,100032.59
2022-08-07T07:56:41.084Z,100035.94
2022-08-07T07:57:52.879Z,100036.41
2022-08-07T07:58:56.848Z,100032.31
2022-08-07T07:59:58.904Z,100029.66
2022-08-07T08:01:02.648Z,100026.56
2022-08-07T08:02:33.984Z,100031.13
2022-08-07T08:04:10.836Z,100033.69
2022-08-07T08:05:02.745Z,100030.28
2022-08-07T08:06:06.823Z,100024.13
2022-08-07T08:07:15.137Z,100034.06
2022-08-07T08:08:35.161Z,100028.50
2022-08-07T08:09:51.725Z,100023.22
2022-08-07T08:10:55.523Z,100027.81
2022-08-07T08:12:02.694Z,100023.88
2022-08-07T08:13:10.660Z,100025.34
2022-08-07T08:14:19.261Z,100019.53
2022-08-07T08:15:29.401Z,100018.94
2022-08-07T08:16:52.000Z,100018.59
2022-08-07T08:17:58.805Z,100025.66
2022-08-07T08:20:19.461Z,100018.16
2022-08-07T08:20:49.424Z,100026.00
2022-08-07T08:21:55.541Z,100020.88
2022-08-07T08:23:10.417Z,100025.41
2022-08-07T08:24:34.360Z,100023.16
2022-08-07T08:25:42.641Z,100020.28
2022-08-07T08:26:55.058Z,100024.03
2022-08-07T08:28:04.162Z,100019.69
2022-08-07T08:29:08.299Z,100017.22
2022-08-07T08:30:14.274Z,100021.53
2022-08-07T08:31:58.382Z,100021.53
2022-08-07T08:33:01.775Z,100011.81
2022-08-07T08:34:06.607Z,100006.31
2022-08-07T08:35:12.118Z,100008.19
2022-08-07T08:36:25.788Z,100011.47
2022-08-07T08:37:59.760Z,100012.97
2022-08-07T08:38:59.997Z,100012.75
2022-08-07T08:40:11.484Z,100016.25
2022-08-07T08:41:23.016Z,100021.63
2022-08-07T08:42:43.112Z,100020.19
2022-08-07T08:44:06.766Z,100024.91
2022-08-07T08:45:58.510Z,100018.75
2022-08-07T08:47:10.013Z,100014.81
2022-08-07T08:48:39.997Z,100015.22
2022-08-07T08:50:02.434Z,100020.44
2022-08-07T08:51:49.386Z,100016.06
2022-08-07T08:53:04.841Z,100015.63
2022-08-07T08:54:25.111Z,100020.38
2022-08-07T08:55:54.730Z,100028.66
2022-08-07T08:57:08.131Z,100016.47
2022-08-07T08:58:28.981Z,100022.91
2022-08-07T08:59:48.035Z,100020.44
2022-08-07T09:00:54.773Z,100018.59
2022-08-07T09:02:17.163Z,100016.50
2022-08-07T09:03:55.869Z,100012.75
2022-08-07T09:05:02.299Z,100014.59
2022-08-07T09:06:11.482Z,100015.22
2022-08-07T09:07:16.031Z,100017.63
2022-08-07T09:08:30.910Z,100010.19
2022-08-07T09:09:57.250Z,100019.94
2022-08-07T09:11:14.091Z,100010.94
2022-08-07T09:13:19.915Z,100013.56
2022-08-07T09:16:20.257Z,100014.19
2022-08-07T09:16:36.372Z,100015.03
2022-08-07T09:18:23.615Z,100014.91
2022-08-07T09:19:52.015Z,100009.34
2022-08-07T09:21:34.097Z,100000.34
2022-08-07T09:24:33.733Z,99999.53
2022-08-07T09:25:17.382Z,99999.78
2022-08-07T09:26:33.425Z,100002.47
2022-08-07T09:28:01.238Z,100001.84
2022-08-07T09:30:04.372Z,99999.75
2022-08-07T09:31:02.926Z,100002.19
2022-08-07T09:32:20.912Z,99998.28
2022-08-07T09:33:57.703Z,99989.38
2022-08-07T09:36:04.387Z,99999.50
2022-08-07T09:37:20.876Z,99988.50
2022-08-07T09:38:49.896Z,99990.50
2022-08-07T09:40:05.770Z,99995.66
2022-08-07T09:41:58.357Z,99998.97
2022-08-07T09:43:40.159Z,99983.81
2022-08-07T09:47:25.643Z,99992.34
2022-08-07T09:47:50.135Z,99992.31
2022-08-07T09:48:01.637Z,99995.88
2022-08-07T09:50:01.046Z,99991.00
2022-08-07T09:52:15.482Z,99982.16
2022-08-07T09:52:52.087Z,99975.25
2022-08-07T09:54:02.635Z,99980.25
2022-08-07T09:55:28.732Z,99986.19
2022-08-07T09:56:53.275Z,99975.41
2022-08-07T09:58:48.580Z,99981.84
2022-08-07T10:00:03.539Z,99977.91
2022-08-07T10:01:52.631Z,99973.09
2022-08-07T10:04:03.584Z,99980.09
2022-08-07T10:05:13.901Z,99963.06
2022-08-07T10:06:49.077Z,99971.84
2022-08-07T10:08:33.218Z,99968.91
2022-08-07T10:10:00.768Z,99959.63
2022-08-07T10:12:01.612Z,99968.31
2022-08-07T10:13:29.794Z,99958.19
2022-08-07T10:15:15.075Z,99957.56
2022-08-07T10:16:41.183Z,99955.28
2022-08-07T10:18:11.092Z,99967.28
2022-08-07T10:19:30.659Z,99958.16
2022-08-07T10:20:54.465Z,99955.91
2022-08-07T10:22:17.851Z,99961.09
2022-08-07T10:24:06.658Z,99956.94
2022-08-07T10:25:32.926Z,99953.84
2022-08-07T10:27:15.706Z,99951.78
2022-08-07T10:28:39.472Z,99953.63
2022-08-07T10:30:07.335Z,99945.56
2022-08-07T10:31:41.822Z,99945.78
2022-08-07T10:33:08.325Z,99945.56
2022-08-07T10:34:49.776Z,99948.44
2022-08-07T10:36:36.319Z,99942.25
2022-08-07T10:38:21.653Z,99938.72
2022-08-07T10:40:08.772Z,99944.31
2022-08-07T10:41:46.461Z,99938.31
2022-08-07T10:43:15.253Z,99941.63
2022-08-07T10:44:38.722Z,99935.41
2022-08-07T10:45:57.713Z,99936.25
2022-08-07T10:47:14.152Z,99934.78
2022-08-07T10:48:34.578Z,99936.38
2022-08-07T10:49:58.161Z,99924.28
2022-08-07T10:51:07.451Z,99924.53
2022-08-07T10:52:31.746Z,99929.03
2022-08-07T10:54:00.392Z,99918.59
2022-08-07T10:55:26.784Z,99924.25
2022-08-07T10:56:47.519Z,99929.16
2022-08-07T10:58:33.244Z,99922.50
2022-08-07T11:00:02.186Z,99921.31
2022-08-07T11:01:23.775Z,99919.47
2022-08-07T11:02:53.642Z,99913.78
2022-08-07T11:04:23.379Z,99918.03
2022-08-07T11:06:09.445Z,99921.78
2022-08-07T11:07:58.582Z,99927.66
2022-08-07T11:09:03.784Z,99931.66
2022-08-07T11:11:00.103Z,99927.75
2022-08-07T11:12:11.832Z,99925.47
2022-08-07T11:14:44.915Z,99926.91
2022-08-07T11:15:00.181Z,99920.72
2022-08-07T11:16:15.198Z,99919.09
2022-08-07T11:17:45.521Z,99922.41
2022-08-07T11:19:03.953Z,99920.53
2022-08-07T11:20:22.412Z,99913.28
2022-08-07T11:21:53.671Z,99913.06
2022-08-07T11:23:10.305Z,99917.84
2022-08-07T11:24:45.385Z,99920.31
2022-08-07T11:26:13.451Z,99914.72
2022-08-07T11:28:01.429Z,99915.13
2022-08-07T11:29:13.370Z,99915.38
2022-08-07T11:30:42.171Z,99911.00
2022-08-07T11:31:49.753Z,99914.91
2022-08-07T11:33:14.038Z,99902.50
2022-08-07T11:34:36.711Z,99910.31
2022-08-07T11:36:11.108Z,99910.56
2022-08-07T11:37:57.542Z,99910.56
2022-08-07T11:39:14.557Z,99915.28
2022-08-07T11:40:49.890Z,99905.59
2022-08-07T11:42:18.953Z,99905.22
2022-08-07T11:43:41.540Z,99900.84
2022-08-07T11:44:58.666Z,99902.28
2022-08-07T11:46:22.091Z,99899.00
2022-08-07T11:48:03.371Z,99892.41
2022-08-07T11:50:25.156Z,99898.63
2022-08-07T11:51:41.317Z,99895.28
2022-08-07T11:52:56.449Z,99892.72
2022-08-07T11:54:11.919Z,99895.09
2022-08-07T11:56:09.431Z,99891.19
2022-08-07T11:57:57.893Z,99892.06
2022-08-07T12:00:09.820Z,99893.78
2022-08-07T12:01:02.186Z,99893.38
2022-08-07T12:02:31.107Z,99899.81
2022-08-07T12:04:00.605Z,99893.41
2022-08-07T12:05:28.951Z,99901.91
2022-08-07T12:06:55.390Z,99898.38
2022-08-07T12:08:11.470Z,99900.06
2022-08-07T12:09:36.411Z,99897.78
2022-08-07T12:10:42.217Z,99902.53
2022-08-07T12:12:09.414Z,99896.94
2022-08-07T12:13:35.356Z,99897.59
2022-08-07T12:14:56.482Z,99885.56
2022-08-07T12:16:09.160Z,99898.59
2022-08-07T12:17:33.502Z,99893.63
2022-08-07T12:18:45.706Z,99886.59
2022-08-07T12:20:06.302Z,99888.25
2022-08-07T12:22:35.790Z,99889.09
2022-08-07T12:24:06.208Z,99888.25
2022-08-07T12:25:07.866Z,99887.03
2022-08-07T12:26:35.477Z,99894.25
2022-08-07T12:28:08.703Z,99885.38
2022-08-07T12:29:38.235Z,99878.78
2022-08-07T12:30:46.864Z,99878.78
2022-08-07T12:32:08.613Z,99875.66
2022-08-07T12:33:28.169Z,99877.09
2022-08-07T12:34:49.471Z,99876.28
2022-08-07T12:35:58.047Z,99880.81
2022-08-07T12:37:01.430Z,99873.78
2022-08-07T12:38:16.151Z,99873.16
2022-08-07T12:39:43.027Z,99877.28
2022-08-07T12:40:54.028Z,99868.16
2022-08-07T12:41:56.726Z,99861.28
2022-08-07T12:43:09.490Z,99872.00
2022-08-07T12:44:17.150Z,99864.91
2022-08-07T12:45:26.535Z,99859.47
2022-08-07T12:46:53.947Z,99861.69
2022-08-07T12:48:41.181Z,99851.19
2022-08-07T12:50:48.856Z,99854.00
2022-08-07T12:52:13.690Z,99853.53
2022-08-07T12:53:28.076Z,99852.22
2022-08-07T12:54:38.860Z,99849.75
2022-08-07T12:56:09.261Z,99844.50
2022-08-07T12:57:12.109Z,99846.53
2022-08-07T12:58:21.699Z,99849.78
2022-08-07T12:59:53.960Z,99846.16
2022-08-07T13:01:08.593Z,99842.19
2022-08-07T13:02:59.248Z,99845.84
2022-08-07T13:04:38.101Z,99838.25
2022-08-07T13:06:21.571Z,99838.81
2022-08-07T13:08:14.466Z,99832.28
2022-08-07T13:10:37.113Z,99840.09
2022-08-07T13:10:52.824Z,99841.50
2022-08-07T13:12:28.795Z,99852.38
2022-08-07T13:14:03.328Z,99852.59
2022-08-07T13:15:23.517Z,99844.78
2022-08-07T13:16:40.686Z,99838.94
2022-08-07T13:17:54.300Z,99839.38
2022-08-07T13:19:46.204Z,99838.50
2022-08-07T13:20:55.881Z,99831.38
2022-08-07T13:22:27.852Z,99832.16
2022-08-07T13:24:02.052Z,99830.88
2022-08-07T13:25:09.229Z,99824.84
2022-08-07T13:26:26.450Z,99828.78
2022-08-07T13:28:13.902Z,99824.47
2022-08-07T13:29:23.681Z,99830.31
2022-08-07T13:30:40.600Z,99834.84
2022-08-07T13:31:57.266Z,99831.50
2022-08-07T13:34:29.851Z,99836.22
2022-08-07T13:35:01.104Z,99829.53
2022-08-07T13:36:19.032Z,99832.59
2022-08-07T13:37:58.722Z,99831.13
2022-08-07T13:39:49.240Z,99832.34
2022-08-07T13:41:01.590Z,99822.72
2022-08-07T13:42:04.456Z,99823.34
2022-08-07T13:43:11.894Z,99824.78
2022-08-07T13:44:25.799Z,99824.94
2022-08-07T13:46:11.756Z,99820.13
2022-08-07T13:46:52.428Z,99825.09
2022-08-07T13:48:06.923Z,99819.22
2022-08-07T13:50:33.935Z,99809.25
2022-08-07T13:50:44.981Z,99803.47
2022-08-07T13:52:31.779Z,99811.53
2022-08-07T13:53:59.514Z,99813.97
2022-08-07T13:54:56.032Z,99811.13
2022-08-07T13:55:59.835Z,99816.13
2022-08-07T13:57:05.309Z,99805.09
2022-08-07T13:58:16.665Z,99812.91
2022-08-07T13:59:32.639Z,99807.19
2022-08-07T14:00:50.361Z,99802.41
2022-08-07T14:02:04.496Z,99804.44
2022-08-07T14:03:08.242Z,99798.38
2022-08-07T14:04:16.825Z,99803.53
2022-08-07T14:05:24.105Z,99796.03
2022-08-07T14:06:32.602Z,99798.13
2022-08-07T14:08:00.076Z,99798.50
2022-08-07T14:09:04.922Z,99799.94
2022-08-07T14:10:20.468Z,99791.09
2022-08-07T14:11:53.374Z,99796.25
2022-08-07T14:13:00.601Z,99792.16
2022-08-07T14:14:10.432Z,99787.41
2022-08-07T14:15:27.970Z,99787.06
2022-08-07T14:16:36.183Z,99783.78
2022-08-07T14:18:15.605Z,99787.88
2022-08-07T14:20:42.905Z,99786.47
2022-08-07T14:20:49.096Z,99785.19
2022-08-07T14:22:01.771Z,99784.84
2022-08-07T14:23:31.749Z,99785.84
2022-08-07T14:24:42.423Z,99786.81
2022-08-07T14:25:54.413Z,99785.06
2022-08-07T14:26:59.762Z,99783.47
2022-08-07T14:28:12.973Z,99785.13
2022-08-07T14:30:07.854Z,99792.81
2022-08-07T14:30:46.937Z,99789.13
2022-08-07T14:31:56.385Z,99783.53
2022-08-07T14:33:04.460Z,99783.34
2022-08-07T14:34:07.545Z,99783.75
2022-08-07T14:35:24.139Z,99780.00
2022-08-07T14:36:41.799Z,99782.94
2022-08-07T14:37:47.174Z,99787.44
2022-08-07T14:39:12.570Z,99778.56
2022-08-07T14:40:35.378Z,99771.75
2022-08-07T14:42:18.311Z,99782.69
2022-08-07T14:43:57.810Z,99772.97
2022-08-07T14:44:30.856Z,99770.25
2022-08-07T14:45:46.724Z,99770.03
2022-08-07T14:48:21.610Z,99769.16
2022-08-07T14:49:56.923Z,99767.31
2022-08-07T14:50:58.090Z,99755.28
2022-08-07T14:52:10.506Z,99752.31
2022-08-07T14:53:13.943Z,99753.72